sensor_id;sensor_type;location;lat;lon;timestamp;temperature;humidity
71291;DHT22;59073;51.994;4.448;2022-08-18T00:02:28;20.93;79.30
71291;DHT22;59073;51.994;4.448;2022-08-18T00:04:55;20.77;80.08
71291;DHT22;59073;51.994;4.448;2022-08-18T00:07:23;20.51;81.10
71291;DHT22;59073;51.994;4.448;2022-08-18T00:09:49;20.41;81.87
71291;DHT22;59073;51.994;4.448;2022-08-18T00:12:20;20.38;82.02
71291;DHT22;59073;51.994;4.448;2022-08-18T00:14:47;20.41;82.06
71291;DHT22;59073;51.994;4.448;2022-08-18T00:17:13;20.49;82.15
71291;DHT22;59073;51.994;4.448;2022-08-18T00:19:39;20.53;81.81
71291;DHT22;59073;51.994;4.448;2022-08-18T00:22:05;20.46;82.06
71291;DHT22;59073;51.994;4.448;2022-08-18T00:24:30;20.36;82.35
71291;DHT22;59073;51.994;4.448;2022-08-18T00:26:56;20.25;82.79
71291;DHT22;59073;51.994;4.448;2022-08-18T00:29:23;20.20;83.03
71291;DHT22;59073;51.994;4.448;2022-08-18T00:31:48;20.18;83.32
71291;DHT22;59073;51.994;4.448;2022-08-18T00:34:14;20.21;83.24
71291;DHT22;59073;51.994;4.448;2022-08-18T00:36:39;20.28;82.78
71291;DHT22;59073;51.994;4.448;2022-08-18T00:39:06;20.35;82.53
71291;DHT22;59073;51.994;4.448;2022-08-18T00:41:31;20.41;82.52
71291;DHT22;59073;51.994;4.448;2022-08-18T00:43:57;20.39;82.31
71291;DHT22;59073;51.994;4.448;2022-08-18T00:46:32;20.28;82.86
71291;DHT22;59073;51.994;4.448;2022-08-18T00:48:59;20.12;83.24
71291;DHT22;59073;51.994;4.448;2022-08-18T00:54:18;20.10;83.30
71291;DHT22;59073;51.994;4.448;2022-08-18T00:56:49;20.10;83.27
71291;DHT22;59073;51.994;4.448;2022-08-18T00:59:30;20.14;82.88
71291;DHT22;59073;51.994;4.448;2022-08-18T01:02:01;20.18;82.58
71291;DHT22;59073;51.994;4.448;2022-08-18T01:04:34;20.20;82.16
71291;DHT22;59073;51.994;4.448;2022-08-18T01:07:26;20.21;81.90
71291;DHT22;59073;51.994;4.448;2022-08-18T01:09:55;20.20;82.26
71291;DHT22;59073;51.994;4.448;2022-08-18T01:12:25;20.20;82.42
71291;DHT22;59073;51.994;4.448;2022-08-18T01:14:52;20.17;82.54
71291;DHT22;59073;51.994;4.448;2022-08-18T01:17:19;20.17;82.01
71291;DHT22;59073;51.994;4.448;2022-08-18T01:20:03;20.18;81.86
71291;DHT22;59073;51.994;4.448;2022-08-18T01:22:59;20.12;82.38
71291;DHT22;59073;51.994;4.448;2022-08-18T01:25:26;20.05;83.49
71291;DHT22;59073;51.994;4.448;2022-08-18T01:28:10;20.05;83.17
71291;DHT22;59073;51.994;4.448;2022-08-18T01:30:47;20.05;83.29
71291;DHT22;59073;51.994;4.448;2022-08-18T01:33:14;20.12;83.43
71291;DHT22;59073;51.994;4.448;2022-08-18T01:35:43;20.24;83.00
71291;DHT22;59073;51.994;4.448;2022-08-18T01:38:18;20.22;82.40
71291;DHT22;59073;51.994;4.448;2022-08-18T01:40:44;20.20;82.30
71291;DHT22;59073;51.994;4.448;2022-08-18T01:43:12;20.25;82.18
71291;DHT22;59073;51.994;4.448;2022-08-18T01:45:38;20.29;81.99
71291;DHT22;59073;51.994;4.448;2022-08-18T01:48:03;20.26;81.67
71291;DHT22;59073;51.994;4.448;2022-08-18T01:50:29;20.07;81.66
71291;DHT22;59073;51.994;4.448;2022-08-18T01:52:59;19.90;82.06
71291;DHT22;59073;51.994;4.448;2022-08-18T01:55:24;19.66;82.35
71291;DHT22;59073;51.994;4.448;2022-08-18T01:57:53;19.50;82.57
71291;DHT22;59073;51.994;4.448;2022-08-18T02:00:20;19.43;82.84
71291;DHT22;59073;51.994;4.448;2022-08-18T02:02:47;19.39;83.06
71291;DHT22;59073;51.994;4.448;2022-08-18T02:05:22;19.30;83.62
71291;DHT22;59073;51.994;4.448;2022-08-18T02:07:49;19.36;84.27
71291;DHT22;59073;51.994;4.448;2022-08-18T02:10:14;19.40;84.02
71291;DHT22;59073;51.994;4.448;2022-08-18T02:12:40;19.54;83.55
71291;DHT22;59073;51.994;4.448;2022-08-18T02:15:07;19.64;82.91
71291;DHT22;59073;51.994;4.448;2022-08-18T02:17:40;19.67;82.50
71291;DHT22;59073;51.994;4.448;2022-08-18T02:20:10;19.66;81.63
71291;DHT22;59073;51.994;4.448;2022-08-18T02:22:36;19.61;80.78
71291;DHT22;59073;51.994;4.448;2022-08-18T02:25:03;19.53;80.90
71291;DHT22;59073;51.994;4.448;2022-08-18T02:27:29;19.49;81.07
71291;DHT22;59073;51.994;4.448;2022-08-18T02:29:54;19.46;81.16
71291;DHT22;59073;51.994;4.448;2022-08-18T02:32:20;19.45;81.47
71291;DHT22;59073;51.994;4.448;2022-08-18T02:34:46;19.33;81.71
71291;DHT22;59073;51.994;4.448;2022-08-18T02:37:11;19.26;82.96
71291;DHT22;59073;51.994;4.448;2022-08-18T02:39:37;19.33;83.05
71291;DHT22;59073;51.994;4.448;2022-08-18T02:42:04;19.43;82.84
71291;DHT22;59073;51.994;4.448;2022-08-18T02:44:30;19.49;82.46
71291;DHT22;59073;51.994;4.448;2022-08-18T02:46:56;19.57;81.84
71291;DHT22;59073;51.994;4.448;2022-08-18T02:49:22;19.53;81.25
71291;DHT22;59073;51.994;4.448;2022-08-18T02:51:49;19.46;81.42
71291;DHT22;59073;51.994;4.448;2022-08-18T02:54:16;19.34;81.92
71291;DHT22;59073;51.994;4.448;2022-08-18T02:56:42;19.33;81.54
71291;DHT22;59073;51.994;4.448;2022-08-18T02:59:13;19.23;81.58
71291;DHT22;59073;51.994;4.448;2022-08-18T03:01:43;19.23;82.00
71291;DHT22;59073;51.994;4.448;2022-08-18T03:04:15;19.26;82.36
71291;DHT22;59073;51.994;4.448;2022-08-18T03:06:42;19.26;82.34
71291;DHT22;59073;51.994;4.448;2022-08-18T03:09:09;19.22;82.99
71291;DHT22;59073;51.994;4.448;2022-08-18T03:11:36;19.16;83.15
71291;DHT22;59073;51.994;4.448;2022-08-18T03:14:03;19.18;83.58
71291;DHT22;59073;51.994;4.448;2022-08-18T03:16:30;19.18;84.49
71291;DHT22;59073;51.994;4.448;2022-08-18T03:18:58;19.22;84.62
71291;DHT22;59073;51.994;4.448;2022-08-18T03:21:27;19.24;84.71
71291;DHT22;59073;51.994;4.448;2022-08-18T03:23:54;19.32;84.73
71291;DHT22;59073;51.994;4.448;2022-08-18T03:26:22;19.34;84.74
71291;DHT22;59073;51.994;4.448;2022-08-18T03:28:51;19.42;84.56
71291;DHT22;59073;51.994;4.448;2022-08-18T03:31:18;19.50;84.41
71291;DHT22;59073;51.994;4.448;2022-08-18T03:33:45;19.59;84.52
71291;DHT22;59073;51.994;4.448;2022-08-18T03:36:15;19.67;84.20
71291;DHT22;59073;51.994;4.448;2022-08-18T03:38:46;19.74;83.95
71291;DHT22;59073;51.994;4.448;2022-08-18T03:41:20;19.75;82.78
71291;DHT22;59073;51.994;4.448;2022-08-18T03:43:50;19.70;83.20
71291;DHT22;59073;51.994;4.448;2022-08-18T03:46:18;19.61;83.05
71291;DHT22;59073;51.994;4.448;2022-08-18T03:48:44;19.54;82.84
71291;DHT22;59073;51.994;4.448;2022-08-18T03:51:20;19.53;82.94
71291;DHT22;59073;51.994;4.448;2022-08-18T03:53:48;19.63;82.66
71291;DHT22;59073;51.994;4.448;2022-08-18T03:56:19;19.66;82.25
71291;DHT22;59073;51.994;4.448;2022-08-18T03:58:49;19.67;81.35
71291;DHT22;59073;51.994;4.448;2022-08-18T04:01:20;19.67;81.50
71291;DHT22;59073;51.994;4.448;2022-08-18T04:03:56;19.66;81.69
71291;DHT22;59073;51.994;4.448;2022-08-18T04:06:25;19.63;81.87
71291;DHT22;59073;51.994;4.448;2022-08-18T04:08:57;19.56;81.71
71291;DHT22;59073;51.994;4.448;2022-08-18T04:11:23;19.45;82.81
71291;DHT22;59073;51.994;4.448;2022-08-18T04:13:49;19.40;82.91
71291;DHT22;59073;51.994;4.448;2022-08-18T04:16:15;19.42;82.80
71291;DHT22;59073;51.994;4.448;2022-08-18T04:18:41;19.42;82.74
71291;DHT22;59073;51.994;4.448;2022-08-18T04:21:09;19.33;82.92
71291;DHT22;59073;51.994;4.448;2022-08-18T04:23:39;19.26;83.50
71291;DHT22;59073;51.994;4.448;2022-08-18T04:26:06;19.29;83.72
71291;DHT22;59073;51.994;4.448;2022-08-18T04:28:33;19.43;83.71
71291;DHT22;59073;51.994;4.448;2022-08-18T04:30:58;19.45;82.84
71291;DHT22;59073;51.994;4.448;2022-08-18T04:33:29;19.34;83.08
71291;DHT22;59073;51.994;4.448;2022-08-18T04:35:55;19.27;82.66
71291;DHT22;59073;51.994;4.448;2022-08-18T04:38:21;19.27;82.20
71291;DHT22;59073;51.994;4.448;2022-08-18T04:40:47;19.22;82.29
71291;DHT22;59073;51.994;4.448;2022-08-18T04:43:12;19.22;82.39
71291;DHT22;59073;51.994;4.448;2022-08-18T04:45:46;19.32;82.96
71291;DHT22;59073;51.994;4.448;2022-08-18T04:48:12;19.29;83.28
71291;DHT22;59073;51.994;4.448;2022-08-18T04:50:40;19.32;83.70
71291;DHT22;59073;51.994;4.448;2022-08-18T04:53:06;19.42;82.99
71291;DHT22;59073;51.994;4.448;2022-08-18T04:55:52;19.70;82.46
71291;DHT22;59073;51.994;4.448;2022-08-18T04:58:20;19.80;81.96
71291;DHT22;59073;51.994;4.448;2022-08-18T05:00:55;20.17;81.59
71291;DHT22;59073;51.994;4.448;2022-08-18T05:03:21;20.57;81.05
71291;DHT22;59073;51.994;4.448;2022-08-18T05:05:48;20.48;81.89
71291;DHT22;59073;51.994;4.448;2022-08-18T05:08:13;20.51;82.08
71291;DHT22;59073;51.994;4.448;2022-08-18T05:10:39;20.41;82.82
71291;DHT22;59073;51.994;4.448;2022-08-18T05:13:04;20.41;81.50
71291;DHT22;59073;51.994;4.448;2022-08-18T05:15:30;20.32;81.26
71291;DHT22;59073;51.994;4.448;2022-08-18T05:17:56;20.21;81.73
71291;DHT22;59073;51.994;4.448;2022-08-18T05:20:22;20.00;82.51
71291;DHT22;59073;51.994;4.448;2022-08-18T05:22:47;19.91;83.16
71291;DHT22;59073;51.994;4.448;2022-08-18T05:25:12;19.91;83.59
71291;DHT22;59073;51.994;4.448;2022-08-18T05:27:40;19.94;83.33
71291;DHT22;59073;51.994;4.448;2022-08-18T05:30:08;20.31;83.15
71291;DHT22;59073;51.994;4.448;2022-08-18T05:32:43;21.24;81.13
71291;DHT22;59073;51.994;4.448;2022-08-18T05:35:35;22.44;75.96
71291;DHT22;59073;51.994;4.448;2022-08-18T05:38:35;23.18;70.30
71291;DHT22;59073;51.994;4.448;2022-08-18T05:43:36;24.21;68.13
71291;DHT22;59073;51.994;4.448;2022-08-18T05:46:04;24.67;66.58
71291;DHT22;59073;51.994;4.448;2022-08-18T05:48:31;25.13;65.11
71291;DHT22;59073;51.994;4.448;2022-08-18T05:50:57;25.49;64.34
71291;DHT22;59073;51.994;4.448;2022-08-18T05:53:27;25.88;63.70
71291;DHT22;59073;51.994;4.448;2022-08-18T05:56:19;26.28;62.86
71291;DHT22;59073;51.994;4.448;2022-08-18T05:59:05;26.82;61.60
71291;DHT22;59073;51.994;4.448;2022-08-18T06:01:39;27.14;60.63
71291;DHT22;59073;51.994;4.448;2022-08-18T06:04:15;27.04;60.61
71291;DHT22;59073;51.994;4.448;2022-08-18T06:06:43;26.76;61.43
71291;DHT22;59073;51.994;4.448;2022-08-18T06:09:28;26.78;61.70
71291;DHT22;59073;51.994;4.448;2022-08-18T06:12:15;27.07;61.16
71291;DHT22;59073;51.994;4.448;2022-08-18T06:14:43;27.34;60.79
71291;DHT22;59073;51.994;4.448;2022-08-18T06:17:41;27.65;60.83
71291;DHT22;59073;51.994;4.448;2022-08-18T06:20:24;27.95;59.98
71291;DHT22;59073;51.994;4.448;2022-08-18T06:28:16;28.59;58.09
71291;DHT22;59073;51.994;4.448;2022-08-18T06:41:37;29.42;55.49
71291;DHT22;59073;51.994;4.448;2022-08-18T06:44:13;28.97;54.48
71291;DHT22;59073;51.994;4.448;2022-08-18T06:46:48;29.19;55.85
71291;DHT22;59073;51.994;4.448;2022-08-18T06:49:42;29.39;55.20
71291;DHT22;59073;51.994;4.448;2022-08-18T06:52:25;28.44;57.82
71291;DHT22;59073;51.994;4.448;2022-08-18T06:54:53;27.61;60.10
71291;DHT22;59073;51.994;4.448;2022-08-18T06:57:37;25.80;64.31
71291;DHT22;59073;51.994;4.448;2022-08-18T07:00:31;24.06;69.14
71291;DHT22;59073;51.994;4.448;2022-08-18T07:03:17;23.38;72.11
71291;DHT22;59073;51.994;4.448;2022-08-18T07:08:40;22.97;73.31
71291;DHT22;59073;51.994;4.448;2022-08-18T07:11:32;23.00;72.46
71291;DHT22;59073;51.994;4.448;2022-08-18T07:14:13;22.94;74.20
71291;DHT22;59073;51.994;4.448;2022-08-18T07:16:43;23.08;74.27
71291;DHT22;59073;51.994;4.448;2022-08-18T07:19:14;23.00;72.55
71291;DHT22;59073;51.994;4.448;2022-08-18T07:21:42;23.21;72.85
71291;DHT22;59073;51.994;4.448;2022-08-18T07:24:11;23.55;70.77
71291;DHT22;59073;51.994;4.448;2022-08-18T07:26:58;23.66;70.67
71291;DHT22;59073;51.994;4.448;2022-08-18T07:29:29;23.63;70.58
71291;DHT22;59073;51.994;4.448;2022-08-18T07:32:03;23.94;70.44
71291;DHT22;59073;51.994;4.448;2022-08-18T07:34:40;24.45;69.18
71291;DHT22;59073;51.994;4.448;2022-08-18T07:37:31;24.96;68.04
71291;DHT22;59073;51.994;4.448;2022-08-18T07:43:00;25.26;65.93
71291;DHT22;59073;51.994;4.448;2022-08-18T07:45:43;24.85;66.78
71291;DHT22;59073;51.994;4.448;2022-08-18T07:48:22;25.18;66.23
71291;DHT22;59073;51.994;4.448;2022-08-18T07:51:00;24.88;67.09
71291;DHT22;59073;51.994;4.448;2022-08-18T07:56:37;23.43;71.23
71291;DHT22;59073;51.994;4.448;2022-08-18T08:07:16;23.61;72.14
71291;DHT22;59073;51.994;4.448;2022-08-18T08:09:45;23.43;71.11
71291;DHT22;59073;51.994;4.448;2022-08-18T08:13:12;23.32;71.83
71291;DHT22;59073;51.994;4.448;2022-08-18T08:18:03;23.59;71.79
71291;DHT22;59073;51.994;4.448;2022-08-18T08:21:03;23.92;70.75
71291;DHT22;59073;51.994;4.448;2022-08-18T08:23:59;24.37;69.69
71291;DHT22;59073;51.994;4.448;2022-08-18T08:32:10;24.78;66.55
71291;DHT22;59073;51.994;4.448;2022-08-18T08:35:04;24.28;67.59
71291;DHT22;59073;51.994;4.448;2022-08-18T08:37:44;24.00;69.25
71291;DHT22;59073;51.994;4.448;2022-08-18T08:40:27;23.74;70.83
71291;DHT22;59073;51.994;4.448;2022-08-18T08:43:03;24.21;68.82
71291;DHT22;59073;51.994;4.448;2022-08-18T08:45:44;24.58;69.10
71291;DHT22;59073;51.994;4.448;2022-08-18T08:48:20;24.57;66.85
71291;DHT22;59073;51.994;4.448;2022-08-18T08:51:05;24.34;66.50
71291;DHT22;59073;51.994;4.448;2022-08-18T08:53:37;24.62;67.68
71291;DHT22;59073;51.994;4.448;2022-08-18T08:56:12;23.83;69.42
71291;DHT22;59073;51.994;4.448;2022-08-18T08:59:08;24.51;67.61
71291;DHT22;59073;51.994;4.448;2022-08-18T09:04:53;24.89;66.71
71291;DHT22;59073;51.994;4.448;2022-08-18T09:22:55;23.42;68.51
71291;DHT22;59073;51.994;4.448;2022-08-18T10:22:38;24.85;64.13
71291;DHT22;59073;51.994;4.448;2022-08-18T10:39:20;24.58;64.46
71291;DHT22;59073;51.994;4.448;2022-08-18T10:50:59;25.18;63.10
71291;DHT22;59073;51.994;4.448;2022-08-18T10:53:55;25.42;62.95
71291;DHT22;59073;51.994;4.448;2022-08-18T10:56:32;25.70;60.68
71291;DHT22;59073;51.994;4.448;2022-08-18T11:04:43;25.90;60.83
71291;DHT22;59073;51.994;4.448;2022-08-18T11:07:17;25.67;59.66
71291;DHT22;59073;51.994;4.448;2022-08-18T11:09:50;25.32;61.22
71291;DHT22;59073;51.994;4.448;2022-08-18T11:12:44;25.34;62.02
71291;DHT22;59073;51.994;4.448;2022-08-18T11:18:15;25.43;61.86
71291;DHT22;59073;51.994;4.448;2022-08-18T11:20:43;25.29;60.12
71291;DHT22;59073;51.994;4.448;2022-08-18T11:23:16;25.37;59.92
71291;DHT22;59073;51.994;4.448;2022-08-18T11:25:42;25.50;61.53
71291;DHT22;59073;51.994;4.448;2022-08-18T11:28:18;25.54;61.25
71291;DHT22;59073;51.994;4.448;2022-08-18T11:30:49;25.90;60.50
71291;DHT22;59073;51.994;4.448;2022-08-18T11:33:18;26.25;54.27
71291;DHT22;59073;51.994;4.448;2022-08-18T11:36:10;26.46;53.96
71291;DHT22;59073;51.994;4.448;2022-08-18T11:41:50;27.07;52.68
71291;DHT22;59073;51.994;4.448;2022-08-18T11:44:31;27.41;50.87
71291;DHT22;59073;51.994;4.448;2022-08-18T11:47:35;27.01;51.08
71291;DHT22;59073;51.994;4.448;2022-08-18T11:50:43;27.01;54.07
71291;DHT22;59073;51.994;4.448;2022-08-18T11:53:49;27.08;54.11
71291;DHT22;59073;51.994;4.448;2022-08-18T11:59:02;28.08;51.16
71291;DHT22;59073;51.994;4.448;2022-08-18T12:06:40;26.90;56.19
71291;DHT22;59073;51.994;4.448;2022-08-18T12:09:21;26.87;53.39
71291;DHT22;59073;51.994;4.448;2022-08-18T12:12:12;26.93;51.63
71291;DHT22;59073;51.994;4.448;2022-08-18T12:15:04;26.55;53.42
71291;DHT22;59073;51.994;4.448;2022-08-18T12:17:32;26.59;55.14
71291;DHT22;59073;51.994;4.448;2022-08-18T12:20:22;26.89;53.40
71291;DHT22;59073;51.994;4.448;2022-08-18T12:22:55;26.99;53.82
71291;DHT22;59073;51.994;4.448;2022-08-18T12:25:21;26.93;51.81
71291;DHT22;59073;51.994;4.448;2022-08-18T12:27:46;26.51;54.05
71291;DHT22;59073;51.994;4.448;2022-08-18T12:30:12;26.12;54.97
71291;DHT22;59073;51.994;4.448;2022-08-18T12:32:38;25.71;56.43
71291;DHT22;59073;51.994;4.448;2022-08-18T12:35:09;25.85;55.51
71291;DHT22;59073;51.994;4.448;2022-08-18T12:37:46;26.00;56.56
71291;DHT22;59073;51.994;4.448;2022-08-18T12:40:24;26.12;55.51
71291;DHT22;59073;51.994;4.448;2022-08-18T12:42:55;25.75;55.79
71291;DHT22;59073;51.994;4.448;2022-08-18T12:45:24;25.88;57.60
71291;DHT22;59073;51.994;4.448;2022-08-18T12:47:50;25.92;56.00
71291;DHT22;59073;51.994;4.448;2022-08-18T12:50:15;25.82;55.57
71291;DHT22;59073;51.994;4.448;2022-08-18T12:52:41;25.82;55.67
71291;DHT22;59073;51.994;4.448;2022-08-18T12:55:07;26.06;53.08
71291;DHT22;59073;51.994;4.448;2022-08-18T12:57:34;26.53;53.99
71291;DHT22;59073;51.994;4.448;2022-08-18T12:59:59;26.60;52.65
71291;DHT22;59073;51.994;4.448;2022-08-18T13:02:25;27.11;52.82
71291;DHT22;59073;51.994;4.448;2022-08-18T13:04:50;26.59;53.42
71291;DHT22;59073;51.994;4.448;2022-08-18T13:07:16;26.35;52.97
71291;DHT22;59073;51.994;4.448;2022-08-18T13:09:42;26.76;53.17
71291;DHT22;59073;51.994;4.448;2022-08-18T13:12:09;26.87;52.62
71291;DHT22;59073;51.994;4.448;2022-08-18T13:14:34;27.17;50.90
71291;DHT22;59073;51.994;4.448;2022-08-18T13:17:00;27.20;51.31
71291;DHT22;59073;51.994;4.448;2022-08-18T13:19:25;27.45;50.20
71291;DHT22;59073;51.994;4.448;2022-08-18T13:21:51;27.31;50.66
71291;DHT22;59073;51.994;4.448;2022-08-18T13:24:17;28.12;52.00
71291;DHT22;59073;51.994;4.448;2022-08-18T13:26:45;28.65;49.05
71291;DHT22;59073;51.994;4.448;2022-08-18T13:29:12;28.22;47.85
71291;DHT22;59073;51.994;4.448;2022-08-18T13:31:38;28.49;49.13
71291;DHT22;59073;51.994;4.448;2022-08-18T13:34:04;28.77;48.87
71291;DHT22;59073;51.994;4.448;2022-08-18T13:36:32;28.26;51.14
71291;DHT22;59073;51.994;4.448;2022-08-18T13:39:16;27.71;51.48
71291;DHT22;59073;51.994;4.448;2022-08-18T13:41:42;27.62;54.14
71291;DHT22;59073;51.994;4.448;2022-08-18T13:44:09;26.68;53.64
71291;DHT22;59073;51.994;4.448;2022-08-18T13:46:38;26.60;53.95
71291;DHT22;59073;51.994;4.448;2022-08-18T13:49:11;26.36;54.83
71291;DHT22;59073;51.994;4.448;2022-08-18T13:51:36;26.39;55.03
71291;DHT22;59073;51.994;4.448;2022-08-18T13:54:02;26.32;55.24
71291;DHT22;59073;51.994;4.448;2022-08-18T13:56:27;26.25;54.26
71291;DHT22;59073;51.994;4.448;2022-08-18T13:58:53;26.11;55.94
71291;DHT22;59073;51.994;4.448;2022-08-18T14:01:19;25.82;58.63
71291;DHT22;59073;51.994;4.448;2022-08-18T14:03:45;25.20;60.82
71291;DHT22;59073;51.994;4.448;2022-08-18T14:06:11;24.68;62.67
71291;DHT22;59073;51.994;4.448;2022-08-18T14:08:37;24.62;63.56
71291;DHT22;59073;51.994;4.448;2022-08-18T14:11:03;24.65;63.10
71291;DHT22;59073;51.994;4.448;2022-08-18T14:13:30;24.71;64.17
71291;DHT22;59073;51.994;4.448;2022-08-18T14:15:56;24.60;64.69
71291;DHT22;59073;51.994;4.448;2022-08-18T14:18:24;24.71;64.04
71291;DHT22;59073;51.994;4.448;2022-08-18T14:20:50;24.78;63.58
71291;DHT22;59073;51.994;4.448;2022-08-18T14:23:34;24.85;63.87
71291;DHT22;59073;51.994;4.448;2022-08-18T14:26:18;24.83;64.09
71291;DHT22;59073;51.994;4.448;2022-08-18T14:29:02;24.95;63.37
71291;DHT22;59073;51.994;4.448;2022-08-18T14:31:30;25.29;62.17
71291;DHT22;59073;51.994;4.448;2022-08-18T14:33:56;25.60;62.71
71291;DHT22;59073;51.994;4.448;2022-08-18T14:36:21;25.46;61.65
71291;DHT22;59073;51.994;4.448;2022-08-18T14:38:49;25.27;61.40
71291;DHT22;59073;51.994;4.448;2022-08-18T14:41:15;25.30;64.17
71291;DHT22;59073;51.994;4.448;2022-08-18T14:43:41;25.19;62.81
71291;DHT22;59073;51.994;4.448;2022-08-18T14:46:10;25.05;63.71
71291;DHT22;59073;51.994;4.448;2022-08-18T14:48:36;24.91;64.60
71291;DHT22;59073;51.994;4.448;2022-08-18T14:51:02;24.85;64.53
71291;DHT22;59073;51.994;4.448;2022-08-18T14:53:30;24.88;64.43
71291;DHT22;59073;51.994;4.448;2022-08-18T14:55:57;24.81;65.36
71291;DHT22;59073;51.994;4.448;2022-08-18T14:58:29;24.67;65.62
71291;DHT22;59073;51.994;4.448;2022-08-18T15:00:58;24.54;64.63
71291;DHT22;59073;51.994;4.448;2022-08-18T15:03:28;24.55;66.73
71291;DHT22;59073;51.994;4.448;2022-08-18T15:05:54;24.68;64.42
71291;DHT22;59073;51.994;4.448;2022-08-18T15:08:20;24.82;65.64
71291;DHT22;59073;51.994;4.448;2022-08-18T15:10:47;25.05;63.55
71291;DHT22;59073;51.994;4.448;2022-08-18T15:13:12;24.92;65.15
71291;DHT22;59073;51.994;4.448;2022-08-18T15:15:38;24.67;64.73
71291;DHT22;59073;51.994;4.448;2022-08-18T15:18:04;24.67;65.66
71291;DHT22;59073;51.994;4.448;2022-08-18T15:20:30;24.88;63.56
71291;DHT22;59073;51.994;4.448;2022-08-18T15:23:00;25.19;64.64
71291;DHT22;59073;51.994;4.448;2022-08-18T15:25:46;25.02;63.28
71291;DHT22;59073;51.994;4.448;2022-08-18T15:28:16;25.08;62.19
71291;DHT22;59073;51.994;4.448;2022-08-18T15:30:44;24.79;62.22
71291;DHT22;59073;51.994;4.448;2022-08-18T15:33:11;24.65;63.04
71291;DHT22;59073;51.994;4.448;2022-08-18T15:35:38;24.64;64.34
71291;DHT22;59073;51.994;4.448;2022-08-18T15:38:06;24.64;65.19
71291;DHT22;59073;51.994;4.448;2022-08-18T15:40:32;24.54;64.08
71291;DHT22;59073;51.994;4.448;2022-08-18T15:43:16;24.64;63.39
71291;DHT22;59073;51.994;4.448;2022-08-18T15:45:44;24.62;65.34
71291;DHT22;59073;51.994;4.448;2022-08-18T15:48:13;24.72;64.79
71291;DHT22;59073;51.994;4.448;2022-08-18T15:50:42;24.73;63.65
71291;DHT22;59073;51.994;4.448;2022-08-18T15:53:10;24.68;65.50
71291;DHT22;59073;51.994;4.448;2022-08-18T15:55:38;24.92;63.31
71291;DHT22;59073;51.994;4.448;2022-08-18T15:58:04;24.95;64.36
71291;DHT22;59073;51.994;4.448;2022-08-18T16:00:30;24.98;63.52
71291;DHT22;59073;51.994;4.448;2022-08-18T16:03:08;25.34;63.02
71291;DHT22;59073;51.994;4.448;2022-08-18T16:05:37;25.10;62.11
71291;DHT22;59073;51.994;4.448;2022-08-18T16:08:06;24.98;63.84
71291;DHT22;59073;51.994;4.448;2022-08-18T16:10:34;25.18;63.29
71291;DHT22;59073;51.994;4.448;2022-08-18T16:13:02;24.78;62.65
71291;DHT22;59073;51.994;4.448;2022-08-18T16:15:33;24.73;63.14
71291;DHT22;59073;51.994;4.448;2022-08-18T16:17:59;24.62;64.05
71291;DHT22;59073;51.994;4.448;2022-08-18T16:20:25;24.50;63.62
71291;DHT22;59073;51.994;4.448;2022-08-18T16:22:52;24.25;64.61
71291;DHT22;59073;51.994;4.448;2022-08-18T16:25:18;24.45;65.55
71291;DHT22;59073;51.994;4.448;2022-08-18T16:27:45;24.64;64.14
71291;DHT22;59073;51.994;4.448;2022-08-18T16:30:23;24.65;62.11
71291;DHT22;59073;51.994;4.448;2022-08-18T16:32:49;24.48;63.38
71291;DHT22;59073;51.994;4.448;2022-08-18T16:35:15;24.52;63.78
71291;DHT22;59073;51.994;4.448;2022-08-18T16:37:43;24.75;63.37
71291;DHT22;59073;51.994;4.448;2022-08-18T16:40:10;24.48;63.17
71291;DHT22;59073;51.994;4.448;2022-08-18T16:42:35;24.61;64.07
71291;DHT22;59073;51.994;4.448;2022-08-18T16:45:03;24.57;63.56
71291;DHT22;59073;51.994;4.448;2022-08-18T16:47:28;24.61;63.82
71291;DHT22;59073;51.994;4.448;2022-08-18T16:49:55;24.72;63.91
71291;DHT22;59073;51.994;4.448;2022-08-18T16:52:20;24.83;61.57
71291;DHT22;59073;51.994;4.448;2022-08-18T16:54:47;24.73;62.40
71291;DHT22;59073;51.994;4.448;2022-08-18T16:57:12;24.51;61.97
71291;DHT22;59073;51.994;4.448;2022-08-18T16:59:38;24.27;62.09
71291;DHT22;59073;51.994;4.448;2022-08-18T17:02:23;24.27;62.59
71291;DHT22;59073;51.994;4.448;2022-08-18T17:05:08;24.28;63.52
71291;DHT22;59073;51.994;4.448;2022-08-18T17:07:37;24.32;63.25
71291;DHT22;59073;51.994;4.448;2022-08-18T17:10:04;24.28;63.15
71291;DHT22;59073;51.994;4.448;2022-08-18T17:12:30;24.35;63.82
71291;DHT22;59073;51.994;4.448;2022-08-18T17:14:56;24.23;64.15
71291;DHT22;59073;51.994;4.448;2022-08-18T17:17:21;24.44;63.82
71291;DHT22;59073;51.994;4.448;2022-08-18T17:19:48;24.34;62.18
71291;DHT22;59073;51.994;4.448;2022-08-18T17:22:14;24.30;62.37
71291;DHT22;59073;51.994;4.448;2022-08-18T17:24:41;24.38;64.37
71291;DHT22;59073;51.994;4.448;2022-08-18T17:27:25;24.24;63.29
71291;DHT22;59073;51.994;4.448;2022-08-18T17:32:18;24.47;64.45
71291;DHT22;59073;51.994;4.448;2022-08-18T17:34:54;24.20;62.43
71291;DHT22;59073;51.994;4.448;2022-08-18T17:37:24;24.30;62.40
71291;DHT22;59073;51.994;4.448;2022-08-18T17:39:57;24.27;62.10
71291;DHT22;59073;51.994;4.448;2022-08-18T17:42:26;24.31;62.38
71291;DHT22;59073;51.994;4.448;2022-08-18T17:44:58;24.38;63.40
71291;DHT22;59073;51.994;4.448;2022-08-18T17:50:26;24.62;62.35
71291;DHT22;59073;51.994;4.448;2022-08-18T17:53:11;24.65;62.56
71291;DHT22;59073;51.994;4.448;2022-08-18T17:55:46;24.69;62.88
71291;DHT22;59073;51.994;4.448;2022-08-18T17:58:24;24.75;62.62
71291;DHT22;59073;51.994;4.448;2022-08-18T18:00:51;24.67;62.40
71291;DHT22;59073;51.994;4.448;2022-08-18T18:03:16;24.71;62.41
71291;DHT22;59073;51.994;4.448;2022-08-18T18:05:49;24.57;62.23
71291;DHT22;59073;51.994;4.448;2022-08-18T18:08:16;24.51;62.89
71291;DHT22;59073;51.994;4.448;2022-08-18T18:10:48;24.58;62.44
71291;DHT22;59073;51.994;4.448;2022-08-18T18:15:44;24.83;62.04
71291;DHT22;59073;51.994;4.448;2022-08-18T18:23:44;25.90;59.08
71291;DHT22;59073;51.994;4.448;2022-08-18T18:26:23;26.08;57.73
71291;DHT22;59073;51.994;4.448;2022-08-18T18:37:29;25.46;60.78
71291;DHT22;59073;51.994;4.448;2022-08-18T18:40:06;24.92;62.02
71291;DHT22;59073;51.994;4.448;2022-08-18T18:42:41;24.83;62.63
71291;DHT22;59073;51.994;4.448;2022-08-18T18:45:28;24.88;62.09
71291;DHT22;59073;51.994;4.448;2022-08-18T18:50:42;24.57;62.88
71291;DHT22;59073;51.994;4.448;2022-08-18T18:53:36;24.13;64.95
71291;DHT22;59073;51.994;4.448;2022-08-18T18:56:27;23.69;65.49
71291;DHT22;59073;51.994;4.448;2022-08-18T19:04:37;23.38;66.65
71291;DHT22;59073;51.994;4.448;2022-08-18T19:07:19;23.31;66.82
71291;DHT22;59073;51.994;4.448;2022-08-18T19:10:02;23.16;67.78
71291;DHT22;59073;51.994;4.448;2022-08-18T19:12:49;23.00;67.93
71291;DHT22;59073;51.994;4.448;2022-08-18T19:15:16;22.95;68.17